createdAt,value
2022-08-30T00:01:02.711Z,21.98
2022-08-30T00:05:02.776Z,21.97
2022-08-30T00:08:04.497Z,21.97
2022-08-30T00:11:08.121Z,21.92
2022-08-30T00:17:59.911Z,21.99
2022-08-30T00:21:05.126Z,21.97
2022-08-30T00:28:01.186Z,21.92
2022-08-30T00:31:03.423Z,21.43
2022-08-30T00:35:06.250Z,21.64
2022-08-30T00:38:09.459Z,21.81
2022-08-30T00:41:11.131Z,21.73
2022-08-30T00:48:01.053Z,21.41
2022-08-30T00:51:07.411Z,21.55
2022-08-30T00:54:59.507Z,21.57
2022-08-30T00:58:05.366Z,21.53
2022-08-30T01:01:08.258Z,21.39
2022-08-30T01:07:58.245Z,21.28
2022-08-30T01:11:01.298Z,21.24
2022-08-30T01:18:03.526Z,21.15
2022-08-30T01:21:24.313Z,21.10
2022-08-30T01:25:04.639Z,21.08
2022-08-30T01:28:14.118Z,21.02
2022-08-30T01:31:16.779Z,21.08
2022-08-30T01:38:06.821Z,20.99
2022-08-30T01:41:13.348Z,20.76
2022-08-30T01:44:59.965Z,20.45
2022-08-30T01:48:01.650Z,20.87
2022-08-30T01:51:06.320Z,20.83
2022-08-30T01:55:06.646Z,20.86
2022-08-30T01:58:11.681Z,20.87
2022-08-30T02:01:16.145Z,20.92
2022-08-30T02:08:00.263Z,20.89
2022-08-30T02:11:02.454Z,20.77
2022-08-30T02:18:03.040Z,20.79
2022-08-30T02:21:05.323Z,20.65
2022-08-30T02:25:02.389Z,20.69
2022-08-30T02:28:05.714Z,20.55
2022-08-30T02:31:46.816Z,20.61
2022-08-30T02:35:06.886Z,20.57
2022-08-30T02:38:09.942Z,20.47
2022-08-30T02:41:11.517Z,20.42
2022-08-30T02:44:34.842Z,20.40
2022-08-30T02:48:00.512Z,20.42
2022-08-30T02:51:12.199Z,20.09
2022-08-30T02:55:00.759Z,20.48
2022-08-30T02:58:02.579Z,20.16
2022-08-30T03:01:05.000Z,20.55
2022-08-30T03:07:59.815Z,20.56
2022-08-30T03:11:01.502Z,20.57
2022-08-30T03:18:07.853Z,20.50
2022-08-30T03:21:11.688Z,20.49
2022-08-30T03:28:00.852Z,20.45
2022-08-30T03:31:02.319Z,20.45
2022-08-30T03:38:02.384Z,20.24
2022-08-30T03:41:04.149Z,20.20
2022-08-30T03:47:59.528Z,20.15
2022-08-30T03:51:00.952Z,20.07
2022-08-30T03:54:36.787Z,20.02
2022-08-30T03:57:39.614Z,20.04
2022-08-30T04:00:45.034Z,20.15
2022-08-30T04:03:46.723Z,20.12
2022-08-30T04:07:07.746Z,20.02
2022-08-30T04:10:10.167Z,19.98
2022-08-30T04:13:11.637Z,19.93
2022-08-30T04:16:13.188Z,19.99
2022-08-30T04:19:15.157Z,20.02
2022-08-30T04:22:16.637Z,19.88
2022-08-30T04:25:18.749Z,20.00
2022-08-30T04:28:20.783Z,20.01
2022-08-30T04:31:22.316Z,19.99
2022-08-30T04:35:00.395Z,19.75
2022-08-30T04:38:02.364Z,20.07
2022-08-30T04:41:11.498Z,19.92
2022-08-30T04:44:14.253Z,20.20
2022-08-30T04:47:39.759Z,20.34
2022-08-30T04:50:43.058Z,20.50
2022-08-30T04:54:26.298Z,20.67
2022-08-30T04:57:28.556Z,20.42
2022-08-30T05:00:30.113Z,21.01
2022-08-30T05:03:31.818Z,21.19
2022-08-30T05:06:37.615Z,21.41
2022-08-30T05:09:39.077Z,21.67
2022-08-30T05:12:41.209Z,21.64
2022-08-30T05:15:43.560Z,21.94
2022-08-30T05:18:46.946Z,22.12
2022-08-30T05:21:48.500Z,22.39
2022-08-30T05:25:14.960Z,22.64
2022-08-30T05:28:17.150Z,23.62
2022-08-30T05:31:23.129Z,25.14
2022-08-30T05:34:25.910Z,25.91
2022-08-30T05:37:27.612Z,24.99
2022-08-30T05:40:29.386Z,23.65
2022-08-30T06:01:16.171Z,23.80
2022-08-30T06:03:13.342Z,23.92
2022-08-30T06:07:11.719Z,23.90
2022-08-30T06:10:44.013Z,23.23
2022-08-30T06:17:22.377Z,22.92
2022-08-30T06:24:17.972Z,23.16
2022-08-30T06:31:35.732Z,24.90
2022-08-30T06:49:29.312Z,26.97
2022-08-30T06:52:31.016Z,27.23
2022-08-30T06:55:36.748Z,26.54
2022-08-30T07:19:00.258Z,28.30
2022-08-30T07:26:18.587Z,26.71
2022-08-30T07:29:45.090Z,27.30
2022-08-30T07:37:18.119Z,26.24
2022-08-30T07:41:01.801Z,26.18
2022-08-30T07:48:05.892Z,25.88
2022-08-30T07:55:15.582Z,26.40
2022-08-30T08:10:00.320Z,26.64
2022-08-30T08:17:30.356Z,26.49
2022-08-30T08:20:40.779Z,26.89
2022-08-30T08:28:08.771Z,27.45
2022-08-30T08:31:33.184Z,27.45
2022-08-30T08:35:33.659Z,27.45
2022-08-30T08:38:55.929Z,27.28
2022-08-30T08:46:57.260Z,27.82
2022-08-30T08:51:18.950Z,27.51
2022-08-30T12:22:35.557Z,29.61
2022-08-30T12:26:41.986Z,29.51
2022-08-30T16:03:27.689Z,27.25
2022-08-30T16:30:39.049Z,27.12
2022-08-30T16:34:02.373Z,27.17
2022-08-30T19:15:42.165Z,24.53
